Time;durP1;ratioP1;P1;durP2;ratioP2;P2;SDS_P1;SDS_P2;PMS_P1;PMS_P2;Temp;Humidity;BMP_temperature;BMP_pressure;BME280_temperature;BME280_humidity;BME280_pressure;Samples;Min_cycle;Max_cycle;Signal;HPM_P1;HPM_P2
2021/05/14 00:01:46;;;;;;;7.30;5.55;;;;;;;12.61;100.00;99640.06;5210393;28;20022;-80
2021/05/14 00:04:19;;;;;;;7.88;5.20;;;;;;;12.67;100.00;99637.06;5219831;28;20439;-80
2021/05/14 00:06:49;;;;;;;9.60;5.80;;;;;;;12.63;100.00;99644.25;5211879;28;20107;-80
2021/05/14 00:09:20;;;;;;;8.50;5.75;;;;;;;12.83;100.00;99641.28;5209489;28;20092;-80
2021/05/14 00:11:50;;;;;;;10.00;6.03;;;;;;;12.70;100.00;99637.72;5213043;28;20044;-81
2021/05/14 00:14:21;;;;;;;8.55;5.88;;;;;;;12.76;99.98;99645.22;5210268;28;20025;-81
2021/05/14 00:16:51;;;;;;;9.70;5.40;;;;;;;12.61;100.00;99645.28;5213982;28;20363;-81
2021/05/14 00:19:21;;;;;;;8.40;5.80;;;;;;;12.56;100.00;99645.56;5227282;28;20025;-80
2021/05/14 00:21:51;;;;;;;6.78;5.40;;;;;;;12.42;100.00;99639.41;5217744;28;20379;-81
2021/05/14 00:24:22;;;;;;;6.93;5.10;;;;;;;12.48;100.00;99634.66;5217603;28;20220;-81
2021/05/14 00:26:52;;;;;;;7.88;5.53;;;;;;;12.41;100.00;99642.97;5209847;28;20029;-80
2021/05/14 00:29:22;;;;;;;10.13;5.70;;;;;;;12.47;100.00;99643.44;5213389;28;20037;-80
2021/05/14 00:31:53;;;;;;;9.10;5.53;;;;;;;12.53;100.00;99642.25;5209374;28;20103;-80
2021/05/14 00:34:23;;;;;;;8.60;5.60;;;;;;;12.45;100.00;99639.25;5224720;28;20414;-80
2021/05/14 00:36:54;;;;;;;7.65;5.20;;;;;;;12.56;100.00;99640.31;5225297;28;20025;-80
2021/05/14 00:39:24;;;;;;;10.65;6.10;;;;;;;12.39;100.00;99637.81;5217681;28;20060;-80
2021/05/14 00:41:55;;;;;;;7.68;5.88;;;;;;;12.49;100.00;99633.72;5212027;28;20045;-80
2021/05/14 00:44:29;;;;;;;9.30;5.82;;;;;;;12.42;100.00;99634.16;5209353;28;20502;-80
2021/05/14 00:47:03;;;;;;;10.63;5.63;;;;;;;12.45;100.00;99640.06;5219468;28;20032;-81
2021/05/14 00:49:34;;;;;;;8.07;5.80;;;;;;;12.49;100.00;99633.72;5231706;28;20028;-81
2021/05/14 00:52:08;;;;;;;8.68;6.03;;;;;;;12.45;100.00;99629.59;5217832;28;20029;-80
2021/05/14 00:54:40;;;;;;;11.50;6.00;;;;;;;12.39;100.00;99629.97;5215541;28;20021;-80
2021/05/14 00:57:16;;;;;;;8.82;5.93;;;;;;;12.40;100.00;99625.53;5215494;28;20024;-80
2021/05/14 00:59:47;;;;;;;;;;;;;;;12.45;100.00;99624.34;5222634;28;20068;-81
2021/05/14 01:02:18;;;;;;;8.45;5.65;;;;;;;12.56;100.00;99627.19;5228962;28;20006;-80
2021/05/14 01:04:48;;;;;;;10.20;6.07;;;;;;;12.54;100.00;99620.34;5224483;28;20021;-80
2021/05/14 01:07:19;;;;;;;9.48;6.18;;;;;;;12.53;100.00;99627.38;5207574;28;20098;-80
2021/05/14 01:09:50;;;;;;;8.32;5.68;;;;;;;12.40;100.00;99626.41;5216972;28;20030;-80
2021/05/14 01:12:20;;;;;;;11.57;6.20;;;;;;;12.50;100.00;99622.28;5247024;23;20036;-78
2021/05/14 01:14:50;;;;;;;8.82;6.38;;;;;;;12.32;100.00;99618.13;5256487;28;20833;-77
2021/05/14 01:17:21;;;;;;;9.57;6.53;;;;;;;12.32;100.00;99623.38;5262285;28;20557;-78
2021/05/14 01:19:51;;;;;;;9.25;5.82;;;;;;;12.31;100.00;99615.63;5256263;28;20016;-78
2021/05/14 01:22:22;;;;;;;8.55;6.18;;;;;;;12.28;100.00;99624.50;5259148;28;20024;-78
2021/05/14 01:24:52;;;;;;;8.63;5.90;;;;;;;12.38;100.00;99623.03;5259677;28;20025;-78
2021/05/14 01:27:23;;;;;;;9.98;5.95;;;;;;;12.52;100.00;99620.47;5262512;28;20515;-78
2021/05/14 01:29:53;;;;;;;9.82;6.15;;;;;;;12.37;100.00;99618.72;5259593;28;20082;-79
2021/05/14 01:32:24;;;;;;;9.80;6.30;;;;;;;12.52;100.00;99624.84;5260500;28;20108;-78
2021/05/14 01:34:54;;;;;;;7.93;6.07;;;;;;;12.34;100.00;99621.53;5254934;28;20017;-77
2021/05/14 01:37:24;;;;;;;7.53;6.15;;;;;;;12.21;100.00;99615.31;5254646;28;20020;-78
2021/05/14 01:39:55;;;;;;;8.18;6.15;;;;;;;12.35;100.00;99623.22;5255751;28;20116;-77
2021/05/14 01:42:25;;;;;;;8.48;6.20;;;;;;;12.29;100.00;99618.31;5260693;28;20028;-78
2021/05/14 01:44:55;;;;;;;8.43;6.05;;;;;;;12.40;100.00;99625.53;5255006;28;20600;-78
2021/05/14 01:47:25;;;;;;;9.68;6.78;;;;;;;12.20;100.00;99618.84;5259063;28;20028;-77
2021/05/14 01:49:56;;;;;;;9.27;7.13;;;;;;;12.22;100.00;99619.59;5252918;28;20036;-78
2021/05/14 01:52:26;;;;;;;10.77;6.75;;;;;;;12.20;100.00;99615.38;5255906;28;20024;-78
2021/05/14 01:54:56;;;;;;;11.52;7.10;;;;;;;12.19;100.00;99618.94;5256846;28;20024;-78
2021/05/14 01:57:28;;;;;;;13.40;8.98;;;;;;;12.09;100.00;99616.00;5259333;28;20035;-79
2021/05/14 01:59:58;;;;;;;17.77;11.88;;;;;;;12.11;100.00;99614.13;5256765;28;20044;-78
2021/05/14 02:02:29;;;;;;;14.05;10.48;;;;;;;12.09;100.00;99617.78;5248305;28;20507;-77
2021/05/14 02:04:59;;;;;;;10.30;7.80;;;;;;;12.18;100.00;99614.63;5252694;28;20128;-79
2021/05/14 02:07:29;;;;;;;10.18;6.65;;;;;;;12.29;100.00;99622.72;5253509;28;20028;-78
2021/05/14 02:10:00;;;;;;;8.75;6.38;;;;;;;12.18;100.00;99620.72;5255899;28;20025;-78
2021/05/14 02:12:30;;;;;;;11.80;7.05;;;;;;;12.13;100.00;99620.13;5257401;28;20634;-77
2021/05/14 02:15:00;;;;;;;12.32;7.22;;;;;;;12.04;100.00;99623.28;5258937;28;20024;-77
2021/05/14 02:17:30;;;;;;;10.23;7.53;;;;;;;12.11;100.00;99619.38;5258645;28;20480;-77
2021/05/14 02:20:01;;;;;;;11.18;7.65;;;;;;;12.00;100.00;99624.38;5252340;28;20028;-78
2021/05/14 02:22:31;;;;;;;10.68;7.70;;;;;;;12.13;100.00;99620.13;5254710;28;20028;-77
2021/05/14 02:25:02;;;;;;;11.98;7.93;;;;;;;12.18;100.00;99625.97;5256456;28;20051;-77
2021/05/14 02:27:34;;;;;;;11.48;7.35;;;;;;;12.13;100.00;99625.34;5257313;28;20028;-78
2021/05/14 02:30:06;;;;;;;10.55;7.15;;;;;;;12.07;100.00;99630.97;5256361;28;20643;-77
2021/05/14 02:32:36;;;;;;;9.50;7.30;;;;;;;12.27;100.00;99625.41;5257397;28;20028;-79
2021/05/14 02:35:08;;;;;;;11.68;7.80;;;;;;;12.12;100.00;99630.69;5253460;28;20024;-77
2021/05/14 02:37:38;;;;;;;9.98;7.40;;;;;;;12.26;100.00;99628.16;5253290;28;20023;-77
2021/05/14 02:40:09;;;;;;;10.27;6.95;;;;;;;12.24;100.00;99630.84;5256145;28;20108;-77
2021/05/14 02:42:39;;;;;;;11.18;7.70;;;;;;;12.06;100.00;99628.41;5256814;28;20028;-77
2021/05/14 02:45:10;;;;;;;10.55;7.45;;;;;;;12.06;100.00;99629.28;5256488;28;20117;-78
2021/05/14 02:47:41;;;;;;;12.13;7.40;;;;;;;12.13;100.00;99638.47;5253694;28;20028;-77
2021/05/14 02:50:12;;;;;;;13.02;7.18;;;;;;;11.97;100.00;99632.41;5247304;28;20028;-78
2021/05/14 02:52:43;;;;;;;12.70;7.47;;;;;;;12.01;100.00;99635.69;5256871;28;20105;-79
2021/05/14 02:55:14;;;;;;;9.68;7.43;;;;;;;12.04;100.00;99639.00;5256227;28;20023;-77
2021/05/14 02:57:44;;;;;;;10.68;7.45;;;;;;;12.03;100.00;99632.06;5256519;28;20035;-79
2021/05/14 03:00:15;;;;;;;11.45;7.70;;;;;;;12.26;100.00;99631.59;5255142;28;20033;-78
2021/05/14 03:02:46;;;;;;;9.82;7.30;;;;;;;12.23;100.00;99639.63;5257025;28;20500;-77
2021/05/14 03:05:16;;;;;;;11.73;8.50;;;;;;;12.07;100.00;99632.72;5252888;28;20055;-78
2021/05/14 03:07:47;;;;;;;13.27;8.98;;;;;;;12.04;100.00;99633.75;5252194;28;20481;-78
2021/05/14 03:10:17;;;;;;;13.32;8.90;;;;;;;12.11;100.00;99629.84;5256733;28;20476;-77
2021/05/14 03:12:48;;;;;;;13.48;9.48;;;;;;;11.90;100.00;99631.06;5257013;28;20110;-77
2021/05/14 03:15:18;;;;;;;10.65;7.85;;;;;;;11.91;100.00;99626.66;5254276;28;20377;-77
2021/05/14 03:17:48;;;;;;;10.35;7.70;;;;;;;11.97;100.00;99629.78;5257711;28;20024;-78
2021/05/14 03:20:19;;;;;;;11.70;7.90;;;;;;;12.06;100.00;99626.66;5250309;28;20023;-78
2021/05/14 03:22:49;;;;;;;11.70;7.85;;;;;;;11.94;100.00;99627.34;5254443;28;20381;-78
2021/05/14 03:25:19;;;;;;;11.48;8.23;;;;;;;11.94;100.00;99626.50;5257269;28;20024;-77
2021/05/14 03:27:50;;;;;;;12.95;8.40;;;;;;;12.15;100.00;99628.72;5255022;28;20024;-78
2021/05/14 03:30:20;;;;;;;11.70;8.20;;;;;;;12.18;100.00;99623.34;5257607;28;20024;-77
2021/05/14 03:32:50;;;;;;;13.82;8.90;;;;;;;12.18;100.00;99625.97;5254396;28;20028;-77
2021/05/14 03:35:21;;;;;;;12.98;8.90;;;;;;;12.19;100.00;99629.41;5253318;28;20024;-77
2021/05/14 03:37:51;;;;;;;14.38;9.23;;;;;;;12.19;100.00;99622.41;5250922;28;20135;-77
2021/05/14 03:43:03;;;;;;;13.32;9.65;;;;;;;11.88;100.00;99624.22;5254264;28;20035;-78
2021/05/14 03:45:33;;;;;;;12.73;9.80;;;;;;;11.92;100.00;99626.56;5256387;28;20448;-78
2021/05/14 03:48:17;;;;;;;14.88;9.82;;;;;;;12.13;100.00;99630.59;5253117;28;20020;-77
2021/05/14 03:50:51;;;;;;;15.55;10.35;;;;;;;12.08;100.00;99626.53;5259665;28;20369;-78
2021/05/14 03:53:22;;;;;;;15.23;9.95;;;;;;;11.86;100.00;99626.94;5256544;28;20031;-78
2021/05/14 03:55:52;;;;;;;15.82;10.52;;;;;;;12.17;100.00;99624.28;5254322;28;20086;-77
2021/05/14 03:58:22;;;;;;;17.08;10.02;;;;;;;12.01;100.00;99627.84;5257078;28;20406;-78
2021/05/14 04:00:53;;;;;;;14.52;10.30;;;;;;;11.97;100.00;99626.31;5253309;28;20070;-78
2021/05/14 04:03:23;;;;;;;17.35;10.38;;;;;;;11.79;100.00;99625.56;5255441;28;20032;-78
2021/05/14 04:05:53;;;;;;;16.95;10.15;;;;;;;12.01;100.00;99631.31;5247588;28;20028;-78
2021/05/14 04:08:25;;;;;;;14.02;9.73;;;;;;;11.99;100.00;99627.91;5252390;28;20673;-78
2021/05/14 04:11:16;;;;;;;13.43;9.73;;;;;;;12.04;100.00;99625.91;5255431;28;20092;-78
2021/05/14 04:16:35;;;;;;;13.80;9.85;;;;;;;12.16;100.00;99625.19;5257096;28;20031;-78
2021/05/14 04:19:06;;;;;;;14.48;10.25;;;;;;;12.29;100.00;99628.78;5251367;28;20462;-78
2021/05/14 04:21:36;;;;;;;15.55;10.13;;;;;;;12.19;100.00;99625.03;5250203;28;20039;-78
2021/05/14 04:24:07;;;;;;;14.55;10.25;;;;;;;12.17;100.00;99624.28;5254144;28;20052;-78
2021/05/14 04:26:38;;;;;;;14.20;9.85;;;;;;;12.29;100.00;99622.72;5255765;28;20020;-78
2021/05/14 04:29:08;;;;;;;15.00;9.80;;;;;;;12.17;100.00;99619.03;5254780;28;20121;-78
2021/05/14 04:31:38;;;;;;;15.55;9.73;;;;;;;12.40;100.00;99623.78;5253965;28;20034;-78
2021/05/14 04:34:09;;;;;;;16.02;9.85;;;;;;;12.35;100.00;99622.34;5255754;28;20024;-78
2021/05/14 04:36:39;;;;;;;14.55;10.13;;;;;;;12.10;100.00;99620.31;5249229;28;20051;-78
2021/05/14 04:39:11;;;;;;;15.32;10.30;;;;;;;12.12;100.00;99631.53;5255302;28;20398;-78
2021/05/14 04:41:41;;;;;;;14.82;9.80;;;;;;;12.22;100.00;99627.47;5238230;28;20375;-78
2021/05/14 04:44:13;;;;;;;13.95;10.10;;;;;;;12.21;100.00;99625.78;5254453;28;20119;-78
2021/05/14 04:46:44;;;;;;;16.38;10.23;;;;;;;12.17;100.00;99636.50;5254470;28;20029;-78
2021/05/14 04:49:15;;;;;;;15.82;10.32;;;;;;;12.27;100.00;99625.41;5250968;28;20032;-78
2021/05/14 04:51:45;;;;;;;16.88;10.85;;;;;;;12.14;100.00;99640.13;5249779;28;20039;-78
2021/05/14 04:54:15;;;;;;;16.52;10.68;;;;;;;12.31;100.00;99637.41;5255332;28;20031;-78
2021/05/14 04:56:46;;;;;;;15.85;10.95;;;;;;;12.30;100.00;99638.34;5254076;28;20032;-78
2021/05/14 04:59:16;;;;;;;17.00;10.40;;;;;;;12.35;100.00;99643.31;5255323;28;20043;-78
2021/05/14 05:01:46;;;;;;;16.65;10.93;;;;;;;12.43;100.00;99639.31;5252276;28;20017;-78
2021/05/14 05:04:17;;;;;;;18.85;10.90;;;;;;;12.30;100.00;99646.19;5252304;28;20059;-78
2021/05/14 05:06:48;;;;;;;15.88;10.63;;;;;;;12.52;100.00;99651.91;5249972;28;20103;-78
2021/05/14 05:09:18;;;;;;;16.50;10.98;;;;;;;12.45;100.00;99650.56;5255851;28;20523;-78
2021/05/14 05:11:48;;;;;;;14.80;11.20;;;;;;;12.25;100.00;99647.38;5253785;28;20036;-78
2021/05/14 05:14:19;;;;;;;16.63;11.20;;;;;;;12.46;100.00;99648.78;5252035;28;20375;-78
2021/05/14 05:16:49;;;;;;;16.85;12.00;;;;;;;12.41;100.00;99650.81;5255032;28;20343;-78
2021/05/14 05:19:20;;;;;;;25.25;13.93;;;;;;;12.47;100.00;99648.69;5250253;28;20025;-78
2021/05/14 05:21:50;;;;;;;20.05;13.05;;;;;;;12.51;100.00;99655.47;5252084;28;20474;-78
2021/05/14 05:24:20;;;;;;;22.55;13.63;;;;;;;12.49;100.00;99657.31;5258855;28;20031;-78
2021/05/14 05:26:50;;;;;;;21.67;13.40;;;;;;;12.52;100.00;99661.53;5255532;28;20028;-78
2021/05/14 05:29:21;;;;;;;20.37;13.90;;;;;;;12.67;100.00;99666.72;5258497;28;20288;-78
2021/05/14 05:31:51;;;;;;;20.67;13.88;;;;;;;12.76;100.00;99663.56;5237163;28;20290;-78
2021/05/14 05:34:24;;;;;;;18.90;13.18;;;;;;;12.96;100.00;99662.44;5256120;28;20490;-78
2021/05/14 05:36:55;;;;;;;20.60;14.30;;;;;;;12.86;100.00;99674.34;5253463;28;20024;-78
2021/05/14 05:39:25;;;;;;;20.92;14.30;;;;;;;12.95;100.00;99666.81;5255100;28;20031;-77
2021/05/14 05:41:55;;;;;;;19.00;13.85;;;;;;;13.12;100.00;99666.66;5258498;28;20028;-78
2021/05/14 05:44:26;;;;;;;22.77;14.27;;;;;;;13.63;100.00;99671.34;5254483;28;20506;-78
2021/05/14 05:46:56;;;;;;;20.70;13.38;;;;;;;13.83;97.26;99671.78;5241176;28;20052;-78
2021/05/14 05:49:26;;;;;;;22.45;14.82;;;;;;;13.79;97.54;99675.56;5256087;28;20039;-78
2021/05/14 05:51:57;;;;;;;24.50;15.23;;;;;;;13.37;97.79;99672.13;5257105;28;20436;-78
2021/05/14 05:54:27;;;;;;;22.20;14.85;;;;;;;13.41;98.48;99681.50;5254389;28;20035;-78
2021/05/14 05:56:59;;;;;;;27.67;18.05;;;;;;;13.31;97.95;99675.09;5259475;28;20020;-78
2021/05/14 05:59:29;;;;;;;34.45;19.15;;;;;;;13.39;97.96;99683.38;5256443;28;20024;-78
2021/05/14 06:01:59;;;;;;;37.47;22.25;;;;;;;13.39;96.87;99683.38;5251879;28;20152;-77
2021/05/14 06:04:30;;;;;;;33.10;19.83;;;;;;;13.38;98.01;99692.19;5259500;28;20030;-78
2021/05/14 06:07:00;;;;;;;39.42;22.33;;;;;;;13.25;99.21;99696.47;5253681;28;20353;-78
2021/05/14 06:09:31;;;;;;;50.25;25.67;;;;;;;13.32;97.50;99689.91;5255652;28;20042;-78
2021/05/14 06:12:02;;;;;;;43.63;23.40;;;;;;;13.06;99.02;99695.91;5253746;28;20036;-78
2021/05/14 06:14:32;;;;;;;39.90;21.38;;;;;;;13.00;98.53;99698.84;5255469;28;20032;-78
2021/05/14 06:17:10;;;;;;;33.85;19.95;;;;;;;13.02;97.94;99702.22;5257085;28;20408;-78
2021/05/14 06:19:50;;;;;;;31.48;18.23;;;;;;;12.86;97.04;99704.06;5251989;28;20401;-78
2021/05/14 06:22:21;;;;;;;24.98;16.45;;;;;;;12.93;97.41;99702.78;5253094;28;20029;-78
2021/05/14 06:24:51;;;;;;;21.90;14.57;;;;;;;13.03;96.75;99702.16;5252987;28;20047;-78
2021/05/14 06:27:21;;;;;;;22.38;14.00;;;;;;;13.24;96.25;99700.03;5250788;28;20048;-78
2021/05/14 06:29:52;;;;;;;18.08;12.32;;;;;;;13.34;95.29;99699.38;5249238;28;20021;-78
2021/05/14 06:32:22;;;;;;;22.55;12.25;;;;;;;13.49;93.59;99705.47;5252435;28;20028;-78
2021/05/14 06:34:54;;;;;;;17.00;11.20;;;;;;;13.69;90.85;99705.09;5252120;28;20021;-79
2021/05/14 06:37:24;;;;;;;17.83;10.88;;;;;;;13.82;90.44;99704.25;5262522;28;20039;-78
2021/05/14 06:39:54;;;;;;;19.10;11.32;;;;;;;14.17;89.85;99720.44;5256380;28;20564;-78
2021/05/14 06:42:24;;;;;;;17.25;10.43;;;;;;;14.22;88.12;99707.88;5253085;28;20452;-78
2021/05/14 06:44:56;;;;;;;17.15;10.75;;;;;;;14.13;88.28;99718.91;5239587;28;20030;-78
2021/05/14 06:47:26;;;;;;;16.77;10.25;;;;;;;14.02;88.95;99721.38;5257148;28;20170;-78
2021/05/14 06:49:57;;;;;;;17.05;10.73;;;;;;;14.09;89.56;99717.44;5248713;28;20558;-78
2021/05/14 06:52:27;;;;;;;15.88;10.15;;;;;;;14.27;88.73;99724.16;5252587;28;20024;-78
2021/05/14 06:54:58;;;;;;;17.52;10.63;;;;;;;14.15;88.76;99717.88;5253235;28;20027;-78
2021/05/14 06:57:28;;;;;;;17.45;11.00;;;;;;;14.23;89.01;99727.94;5256765;28;20435;-78
2021/05/14 06:59:58;;;;;;;17.02;11.07;;;;;;;14.28;88.23;99731.13;5254056;28;20481;-78
2021/05/14 07:02:29;;;;;;;19.08;12.27;;;;;;;14.19;88.73;99723.81;5256684;28;20028;-78
2021/05/14 07:05:00;;;;;;;22.23;14.25;;;;;;;14.12;87.38;99739.06;5251630;28;20508;-77
2021/05/14 07:07:31;;;;;;;23.30;13.27;;;;;;;14.09;86.49;99733.19;5250657;28;20052;-77
2021/05/14 07:10:02;;;;;;;21.02;13.27;;;;;;;14.01;84.78;99738.06;5253468;28;20039;-78
2021/05/14 07:12:34;;;;;;;21.13;13.60;;;;;;;14.16;85.59;99735.38;5253349;22;20127;-80
2021/05/14 07:15:08;;;;;;;20.25;13.40;;;;;;;14.51;86.03;99736.59;5238897;28;20498;-80
2021/05/14 07:17:40;;;;;;;19.13;13.20;;;;;;;14.49;85.95;99742.88;5246856;28;20043;-80
2021/05/14 07:20:11;;;;;;;21.17;14.20;;;;;;;14.38;85.88;99740.06;5243672;28;20028;-80
2021/05/14 07:22:41;;;;;;;22.88;14.50;;;;;;;14.49;85.68;99742.88;5233169;28;20059;-80
2021/05/14 07:25:12;;;;;;;23.55;15.55;;;;;;;14.58;85.19;99742.28;5240488;28;20409;-80
2021/05/14 07:27:43;;;;;;;21.98;15.93;;;;;;;14.80;85.18;99734.69;5263372;28;20053;-80
2021/05/14 07:30:14;;;;;;;23.20;15.52;;;;;;;14.92;83.30;99743.44;5261008;28;20461;-80
2021/05/14 07:32:44;;;;;;;22.80;16.50;;;;;;;15.13;81.87;99742.00;5240700;28;20062;-80
2021/05/14 07:35:15;;;;;;;26.58;16.20;;;;;;;15.08;82.71;99738.00;5261801;28;20016;-80
2021/05/14 07:37:45;;;;;;;24.23;15.23;;;;;;;15.23;80.94;99745.72;5262756;28;20021;-80
2021/05/14 07:40:15;;;;;;;22.30;14.40;;;;;;;15.76;80.57;99742.06;5240145;28;20024;-80
2021/05/14 07:42:46;;;;;;;20.80;15.70;;;;;;;15.89;79.17;99738.44;5242401;28;20104;-80
2021/05/14 07:45:16;;;;;;;22.52;15.52;;;;;;;16.42;78.14;99730.19;5262183;28;20027;-80
2021/05/14 07:47:46;;;;;;;20.40;14.45;;;;;;;18.02;75.55;99727.53;5244844;28;20020;-80
2021/05/14 07:50:17;;;;;;;21.48;15.73;;;;;;;17.87;73.73;99723.44;5250742;28;20024;-80
2021/05/14 07:52:49;;;;;;;21.42;15.63;;;;;;;17.62;73.81;99728.97;5244416;28;20592;-80
2021/05/14 07:55:19;;;;;;;21.35;14.60;;;;;;;18.17;72.62;99721.00;5244397;28;20083;-81
2021/05/14 07:57:49;;;;;;;21.90;14.20;;;;;;;17.82;72.01;99722.97;5264662;28;20063;-81
2021/05/14 08:00:20;;;;;;;22.13;15.10;;;;;;;17.19;73.52;99738.47;5244997;28;20368;-80
2021/05/14 08:02:50;;;;;;;22.88;16.70;;;;;;;16.34;76.52;99735.16;5259748;28;20051;-80
2021/05/14 08:05:20;;;;;;;23.45;17.38;;;;;;;16.35;77.65;99731.63;5238494;28;20024;-80
2021/05/14 08:07:59;;;;;;;23.02;15.95;;;;;;;15.93;77.69;99737.31;5244973;28;20039;-80
2021/05/14 08:10:29;;;;;;;23.30;16.55;;;;;;;16.06;75.59;99738.09;5244700;28;20171;-80
2021/05/14 08:12:59;;;;;;;24.70;16.92;;;;;;;15.77;78.09;99731.41;5234432;28;20497;-81
2021/05/14 08:15:30;;;;;;;25.15;17.50;;;;;;;15.88;78.48;99735.94;5255097;28;20024;-81
2021/05/14 08:18:01;;;;;;;28.90;17.92;;;;;;;15.94;77.55;99732.84;5245099;28;20032;-81
2021/05/14 08:20:31;;;;;;;23.55;16.52;;;;;;;15.71;75.82;99738.91;5259517;28;20016;-81
2021/05/14 08:23:02;;;;;;;26.23;17.88;;;;;;;15.52;77.08;99736.69;5240061;28;20029;-81
2021/05/14 08:25:32;;;;;;;26.75;19.20;;;;;;;15.73;77.57;99742.28;5236212;28;20029;-81
2021/05/14 08:28:04;;;;;;;27.38;18.60;;;;;;;15.81;77.16;99746.06;5259713;28;20024;-81
2021/05/14 08:30:34;;;;;;;26.63;18.67;;;;;;;16.15;75.70;99747.13;5238621;28;20055;-81
2021/05/14 08:33:05;;;;;;;24.02;16.13;;;;;;;16.44;71.96;99748.56;5252840;28;20346;-81
2021/05/14 08:35:36;;;;;;;21.75;15.93;;;;;;;16.68;72.00;99750.25;5240528;28;20135;-81
2021/05/14 08:38:08;;;;;;;21.50;15.52;;;;;;;16.24;71.92;99744.69;5249298;28;20048;-81
2021/05/14 08:40:39;;;;;;;20.90;15.25;;;;;;;16.09;71.23;99743.16;5242473;28;20024;-81
2021/05/14 08:43:13;;;;;;;24.77;16.20;;;;;;;16.42;71.09;99745.19;5239908;28;20099;-81
2021/05/14 08:45:43;;;;;;;23.65;15.32;;;;;;;17.02;68.90;99744.16;5235716;28;20020;-81
2021/05/14 08:48:15;;;;;;;22.27;15.00;;;;;;;17.50;68.15;99737.84;5237914;28;20645;-81
2021/05/14 08:50:46;;;;;;;21.42;14.98;;;;;;;17.80;67.11;99738.94;5237484;28;20063;-81
2021/05/14 08:53:16;;;;;;;18.55;14.00;;;;;;;18.05;65.23;99743.13;5238474;28;20032;-81
2021/05/14 08:55:46;;;;;;;19.08;14.25;;;;;;;17.63;65.47;99746.50;5244456;28;20031;-81
2021/05/14 08:58:17;;;;;;;22.05;14.60;;;;;;;17.76;65.97;99752.50;5244504;28;20023;-81
2021/05/14 09:00:47;;;;;;;22.13;15.63;;;;;;;18.33;65.21;99742.66;5251810;28;20031;-81
2021/05/14 09:03:18;;;;;;;21.50;15.80;;;;;;;18.42;66.53;99736.63;5242745;28;20111;-81
2021/05/14 09:05:48;;;;;;;20.45;15.95;;;;;;;18.34;66.18;99749.63;5266755;28;20275;-81
2021/05/14 09:08:54;;;;;;;21.25;15.25;;;;;;;17.68;68.11;99749.63;5245071;28;20629;-82
2021/05/14 09:11:38;;;;;;;18.63;13.38;;;;;;;18.14;66.34;99753.81;5264800;28;20067;-81
2021/05/14 09:14:35;;;;;;;18.95;13.73;;;;;;;18.07;65.69;99749.16;5258800;28;20028;-81
2021/05/14 09:17:09;;;;;;;19.90;13.48;;;;;;;18.73;65.18;99748.06;5242420;28;20081;-81
2021/05/14 09:19:42;;;;;;;19.52;13.10;;;;;;;18.92;63.80;99744.75;5265536;28;20047;-82
2021/05/14 09:22:17;;;;;;;18.73;13.57;;;;;;;18.34;67.50;99744.34;5243275;28;20025;-81
2021/05/14 09:24:56;;;;;;;19.00;13.55;;;;;;;19.12;66.12;99746.59;5246877;28;20126;-82
2021/05/14 09:27:28;;;;;;;19.88;14.30;;;;;;;18.84;65.77;99745.41;5261153;28;20028;-81
2021/05/14 09:30:01;;;;;;;19.50;14.50;;;;;;;18.50;66.64;99748.25;5239126;28;20107;-81
2021/05/14 09:32:34;;;;;;;21.75;14.60;;;;;;;18.03;68.45;99750.34;5251467;28;20655;-81
2021/05/14 09:35:07;;;;;;;19.15;14.35;;;;;;;17.85;69.76;99754.44;5264914;28;20035;-81
2021/05/14 09:37:50;;;;;;;20.08;14.23;;;;;;;17.52;69.65;99752.59;5245724;28;20111;-81
2021/05/14 09:40:22;;;;;;;19.95;14.43;;;;;;;17.47;71.71;99748.66;5247318;28;20023;-81
2021/05/14 09:43:00;;;;;;;18.75;14.05;;;;;;;17.39;70.53;99748.38;5260989;28;20367;-82
2021/05/14 09:45:31;;;;;;;18.92;13.65;;;;;;;18.48;68.57;99741.44;5242097;28;20034;-81
2021/05/14 09:48:01;;;;;;;20.20;14.90;;;;;;;18.06;69.52;99750.09;5240942;28;20024;-80
2021/05/14 09:50:37;;;;;;;19.83;14.80;;;;;;;18.84;69.38;99742.75;5249083;28;20054;-81
2021/05/14 09:53:11;;;;;;;;;;;;;;;18.17;69.34;99742.19;5252476;28;20392;-81
2021/05/14 09:58:29;;;;;;;17.02;12.73;;;;;;;18.78;66.52;99740.59;5260115;28;20054;-81
2021/05/14 10:01:00;;;;;;;16.13;11.63;;;;;;;19.40;65.14;99727.41;5242493;28;20028;-81
2021/05/14 10:03:31;;;;;;;15.18;11.15;;;;;;;19.46;62.89;99735.69;5261252;28;20035;-81
2021/05/14 10:06:03;;;;;;;15.80;10.98;;;;;;;19.19;64.12;99727.44;5247082;28;20032;-80
2021/05/14 10:08:35;;;;;;;14.23;10.43;;;;;;;19.47;61.21;99733.91;5263453;28;20051;-80
2021/05/14 10:11:05;;;;;;;15.65;10.25;;;;;;;19.09;63.56;99738.91;5265817;28;20020;-80
2021/05/14 10:13:37;;;;;;;17.02;11.65;;;;;;;18.86;65.20;99732.88;5261250;28;20424;-80
2021/05/14 10:16:07;;;;;;;16.83;10.90;;;;;;;18.17;67.60;99747.47;5242595;28;20513;-80
2021/05/14 10:18:43;;;;;;;16.85;12.07;;;;;;;18.58;66.88;99734.41;5260616;28;20079;-81
2021/05/14 10:21:14;;;;;;;16.40;10.77;;;;;;;19.00;66.82;99726.41;5262990;28;20012;-80
2021/05/14 10:23:48;;;;;;;18.02;13.15;;;;;;;18.62;67.62;99726.09;5262923;28;20039;-80
2021/05/14 10:26:18;;;;;;;16.67;12.18;;;;;;;18.23;68.87;99725.81;5243649;28;20028;-79
2021/05/14 10:28:49;;;;;;;18.17;11.95;;;;;;;18.26;68.57;99733.47;5239099;28;20040;-80
2021/05/14 10:31:22;;;;;;;19.50;12.98;;;;;;;18.50;71.71;99728.91;5243776;28;20038;-80
2021/05/14 10:33:57;;;;;;;18.73;12.60;;;;;;;18.30;69.49;99721.72;5240868;28;20036;-78
2021/05/14 10:36:31;;;;;;;18.10;11.20;;;;;;;18.71;67.90;99732.44;5258549;28;20031;-80
2021/05/14 10:39:06;;;;;;;15.45;10.30;;;;;;;18.39;66.34;99729.78;5242426;28;20051;-81
2021/05/14 10:41:48;;;;;;;13.85;9.70;;;;;;;18.25;67.31;99729.16;5243616;28;20031;-79
2021/05/14 10:44:38;;;;;;;13.38;8.60;;;;;;;18.20;63.47;99734.81;5259264;28;20052;-78
2021/05/14 10:47:37;;;;;;;14.77;8.88;;;;;;;17.76;64.36;99728.72;5243076;28;20020;-80
2021/05/14 10:50:13;;;;;;;11.77;8.27;;;;;;;17.62;65.95;99728.97;5264335;28;20040;-80
2021/05/14 10:53:17;;;;;;;13.25;9.02;;;;;;;17.89;66.51;99724.16;5258508;28;20032;-80
2021/05/14 10:55:48;;;;;;;14.98;8.48;;;;;;;17.94;64.47;99724.63;5247448;28;20044;-80
2021/05/14 10:58:37;;;;;;;14.90;8.88;;;;;;;18.12;65.82;99724.00;5259897;28;20028;-79
2021/05/14 11:01:28;;;;;;;13.27;9.15;;;;;;;17.78;67.36;99727.66;5263305;28;20044;-79
2021/05/14 11:04:01;;;;;;;11.95;8.82;;;;;;;17.76;66.62;99728.72;5238919;28;20040;-81
2021/05/14 11:06:45;;;;;;;12.25;7.78;;;;;;;17.84;64.65;99726.31;5241529;28;20505;-79
2021/05/14 11:09:17;;;;;;;10.48;6.25;;;;;;;17.72;63.79;99722.00;5238190;28;20734;-80
2021/05/14 11:12:05;;;;;;;9.52;5.15;;;;;;;18.02;62.50;99723.06;5241586;28;20031;-79
2021/05/14 11:14:38;;;;;;;9.65;6.07;;;;;;;17.59;63.07;99718.63;5239696;28;20036;-80
2021/05/14 11:17:22;;;;;;;6.60;4.68;;;;;;;17.80;63.50;99722.25;5269119;27;20421;-79
2021/05/14 11:19:54;;;;;;;8.02;4.65;;;;;;;18.08;61.72;99716.44;5272062;28;20032;-79
2021/05/14 11:22:36;;;;;;;9.23;4.93;;;;;;;18.37;62.10;99717.63;5275963;28;20051;-80
2021/05/14 11:25:12;;;;;;;8.02;5.20;;;;;;;18.71;63.27;99714.75;5276889;28;20047;-79
2021/05/14 11:27:43;;;;;;;7.90;4.93;;;;;;;18.41;62.69;99727.00;5270938;28;20028;-80
2021/05/14 11:30:15;;;;;;;8.25;5.20;;;;;;;18.50;61.93;99731.56;5273998;28;20578;-79
2021/05/14 11:32:47;;;;;;;8.50;5.00;;;;;;;18.11;61.82;99730.28;5278783;28;20036;-77
2021/05/14 11:35:18;;;;;;;11.20;5.45;;;;;;;18.24;63.09;99736.28;5265935;28;20028;-77
2021/05/14 11:37:58;;;;;;;6.80;4.85;;;;;;;18.02;63.50;99738.09;5275093;28;20454;-78
2021/05/14 11:40:33;;;;;;;7.22;4.03;;;;;;;17.76;61.23;99736.66;5268447;28;20035;-78
2021/05/14 11:43:06;;;;;;;7.60;3.67;;;;;;;17.79;60.84;99737.25;5279956;28;20027;-79
2021/05/14 11:45:39;;;;;;;7.90;4.00;;;;;;;17.89;61.43;99738.22;5276284;28;20078;-79
2021/05/14 11:48:09;;;;;;;6.55;4.18;;;;;;;17.70;63.29;99734.50;5273085;28;20024;-80
2021/05/14 11:50:42;;;;;;;6.68;3.65;;;;;;;18.00;60.83;99740.03;5271839;28;20387;-80